sensor_id;sensor_type;location;lat;lon;timestamp;temperature;humidity
21037;DHT22;10677;50.942;4.028;2022-07-21T00:00:06;20.00;99.90
21037;DHT22;10677;50.942;4.028;2022-07-21T00:02:33;20.00;99.90
21037;DHT22;10677;50.942;4.028;2022-07-21T00:04:58;20.00;99.90
21037;DHT22;10677;50.942;4.028;2022-07-21T00:07:24;20.00;99.90
21037;DHT22;10677;50.942;4.028;2022-07-21T00:09:49;20.10;99.90
21037;DHT22;10677;50.942;4.028;2022-07-21T00:12:15;20.10;99.90
21037;DHT22;10677;50.942;4.028;2022-07-21T00:14:41;20.10;99.90
21037;DHT22;10677;50.942;4.028;2022-07-21T00:17:07;20.10;99.90
21037;DHT22;10677;50.942;4.028;2022-07-21T00:19:33;20.00;99.90
21037;DHT22;10677;50.942;4.028;2022-07-21T00:21:58;20.00;99.90
21037;DHT22;10677;50.942;4.028;2022-07-21T00:24:24;19.90;99.90
21037;DHT22;10677;50.942;4.028;2022-07-21T00:26:49;19.90;99.90
21037;DHT22;10677;50.942;4.028;2022-07-21T00:29:15;20.00;99.90
21037;DHT22;10677;50.942;4.028;2022-07-21T00:31:41;20.00;99.90
21037;DHT22;10677;50.942;4.028;2022-07-21T00:34:06;20.00;99.90
21037;DHT22;10677;50.942;4.028;2022-07-21T00:36:32;19.90;99.90
21037;DHT22;10677;50.942;4.028;2022-07-21T00:38:58;19.90;99.90
21037;DHT22;10677;50.942;4.028;2022-07-21T00:41:23;19.80;99.90
21037;DHT22;10677;50.942;4.028;2022-07-21T00:43:49;19.80;99.90
21037;DHT22;10677;50.942;4.028;2022-07-21T00:46:15;19.70;99.90
21037;DHT22;10677;50.942;4.028;2022-07-21T00:48:40;19.70;99.90
21037;DHT22;10677;50.942;4.028;2022-07-21T00:51:06;19.80;99.90
21037;DHT22;10677;50.942;4.028;2022-07-21T00:53:32;19.70;99.90
21037;DHT22;10677;50.942;4.028;2022-07-21T00:55:59;19.70;99.90
21037;DHT22;10677;50.942;4.028;2022-07-21T00:58:25;19.60;99.90
21037;DHT22;10677;50.942;4.028;2022-07-21T01:00:51;19.50;99.90
21037;DHT22;10677;50.942;4.028;2022-07-21T01:03:17;19.50;99.90
21037;DHT22;10677;50.942;4.028;2022-07-21T01:05:42;19.50;99.90
21037;DHT22;10677;50.942;4.028;2022-07-21T01:08:08;19.50;99.90
21037;DHT22;10677;50.942;4.028;2022-07-21T01:10:34;19.50;99.90
21037;DHT22;10677;50.942;4.028;2022-07-21T01:13:00;19.50;99.90
21037;DHT22;10677;50.942;4.028;2022-07-21T01:15:26;19.50;99.90
21037;DHT22;10677;50.942;4.028;2022-07-21T01:17:52;19.50;99.90
21037;DHT22;10677;50.942;4.028;2022-07-21T01:20:20;19.60;99.90
21037;DHT22;10677;50.942;4.028;2022-07-21T01:22:48;19.60;99.90
21037;DHT22;10677;50.942;4.028;2022-07-21T01:25:15;19.60;99.90
21037;DHT22;10677;50.942;4.028;2022-07-21T01:27:41;19.60;99.90
21037;DHT22;10677;50.942;4.028;2022-07-21T01:30:08;19.50;99.90
21037;DHT22;10677;50.942;4.028;2022-07-21T01:32:38;19.50;99.90
21037;DHT22;10677;50.942;4.028;2022-07-21T01:35:06;19.60;99.90
21037;DHT22;10677;50.942;4.028;2022-07-21T01:37:35;19.50;99.90
21037;DHT22;10677;50.942;4.028;2022-07-21T01:40:02;19.40;99.90
21037;DHT22;10677;50.942;4.028;2022-07-21T01:42:46;19.40;99.90
21037;DHT22;10677;50.942;4.028;2022-07-21T01:45:12;19.50;99.90
21037;DHT22;10677;50.942;4.028;2022-07-21T01:47:37;19.50;99.90
21037;DHT22;10677;50.942;4.028;2022-07-21T01:50:04;19.50;99.90
21037;DHT22;10677;50.942;4.028;2022-07-21T01:52:30;19.60;99.90
21037;DHT22;10677;50.942;4.028;2022-07-21T01:54:55;19.60;99.90
21037;DHT22;10677;50.942;4.028;2022-07-21T01:57:21;19.60;99.90
21037;DHT22;10677;50.942;4.028;2022-07-21T01:59:47;19.60;99.90
21037;DHT22;10677;50.942;4.028;2022-07-21T02:02:12;19.60;99.90
21037;DHT22;10677;50.942;4.028;2022-07-21T02:04:38;19.60;99.90
21037;DHT22;10677;50.942;4.028;2022-07-21T02:07:04;19.60;99.90
21037;DHT22;10677;50.942;4.028;2022-07-21T02:09:29;19.50;99.90
21037;DHT22;10677;50.942;4.028;2022-07-21T02:11:55;19.50;99.90
21037;DHT22;10677;50.942;4.028;2022-07-21T02:14:21;19.40;99.90
21037;DHT22;10677;50.942;4.028;2022-07-21T02:16:47;19.50;99.90
21037;DHT22;10677;50.942;4.028;2022-07-21T02:19:12;19.40;99.90
21037;DHT22;10677;50.942;4.028;2022-07-21T02:21:38;19.40;99.90
21037;DHT22;10677;50.942;4.028;2022-07-21T02:24:04;19.40;99.90
21037;DHT22;10677;50.942;4.028;2022-07-21T02:26:31;19.40;99.90
21037;DHT22;10677;50.942;4.028;2022-07-21T02:28:57;19.40;99.90
21037;DHT22;10677;50.942;4.028;2022-07-21T02:31:22;19.30;99.90
21037;DHT22;10677;50.942;4.028;2022-07-21T02:33:48;19.40;99.90
21037;DHT22;10677;50.942;4.028;2022-07-21T02:36:14;19.40;99.90
21037;DHT22;10677;50.942;4.028;2022-07-21T02:38:39;19.40;99.90
21037;DHT22;10677;50.942;4.028;2022-07-21T02:41:05;19.50;99.90
21037;DHT22;10677;50.942;4.028;2022-07-21T02:43:31;19.50;99.90
21037;DHT22;10677;50.942;4.028;2022-07-21T02:45:56;19.40;99.90
21037;DHT22;10677;50.942;4.028;2022-07-21T02:48:22;19.50;99.90
21037;DHT22;10677;50.942;4.028;2022-07-21T02:50:48;19.60;99.90
21037;DHT22;10677;50.942;4.028;2022-07-21T02:53:17;19.50;99.90
21037;DHT22;10677;50.942;4.028;2022-07-21T02:55:45;19.60;99.90
21037;DHT22;10677;50.942;4.028;2022-07-21T02:58:19;19.50;99.90
21037;DHT22;10677;50.942;4.028;2022-07-21T03:00:48;19.60;99.90
21037;DHT22;10677;50.942;4.028;2022-07-21T03:03:14;19.60;99.90
21037;DHT22;10677;50.942;4.028;2022-07-21T03:05:40;19.60;99.90
21037;DHT22;10677;50.942;4.028;2022-07-21T03:08:08;19.60;99.90
21037;DHT22;10677;50.942;4.028;2022-07-21T03:10:34;19.60;99.90
21037;DHT22;10677;50.942;4.028;2022-07-21T03:13:00;19.50;99.90
21037;DHT22;10677;50.942;4.028;2022-07-21T03:15:26;19.60;99.90
21037;DHT22;10677;50.942;4.028;2022-07-21T03:17:52;19.60;99.90
21037;DHT22;10677;50.942;4.028;2022-07-21T03:20:18;19.60;99.90
21037;DHT22;10677;50.942;4.028;2022-07-21T03:22:44;19.50;99.90
21037;DHT22;10677;50.942;4.028;2022-07-21T03:25:09;19.50;99.90
21037;DHT22;10677;50.942;4.028;2022-07-21T03:27:36;19.60;99.90
21037;DHT22;10677;50.942;4.028;2022-07-21T03:30:07;19.60;99.90
21037;DHT22;10677;50.942;4.028;2022-07-21T03:32:33;19.60;99.90
21037;DHT22;10677;50.942;4.028;2022-07-21T03:34:59;19.60;99.90
21037;DHT22;10677;50.942;4.028;2022-07-21T03:37:25;19.70;99.90
21037;DHT22;10677;50.942;4.028;2022-07-21T03:39:51;19.80;99.90
21037;DHT22;10677;50.942;4.028;2022-07-21T03:42:16;19.70;99.90
21037;DHT22;10677;50.942;4.028;2022-07-21T03:44:42;19.80;99.90
21037;DHT22;10677;50.942;4.028;2022-07-21T03:47:07;19.80;99.90
21037;DHT22;10677;50.942;4.028;2022-07-21T03:49:33;19.80;99.90
21037;DHT22;10677;50.942;4.028;2022-07-21T03:51:59;19.80;99.90
21037;DHT22;10677;50.942;4.028;2022-07-21T03:54:24;19.90;99.90
21037;DHT22;10677;50.942;4.028;2022-07-21T03:56:50;19.90;99.90
21037;DHT22;10677;50.942;4.028;2022-07-21T03:59:15;19.90;99.90
21037;DHT22;10677;50.942;4.028;2022-07-21T04:01:41;20.00;99.90
21037;DHT22;10677;50.942;4.028;2022-07-21T04:04:07;20.00;99.90
21037;DHT22;10677;50.942;4.028;2022-07-21T04:06:32;20.00;99.90
21037;DHT22;10677;50.942;4.028;2022-07-21T04:08:58;20.00;99.90
21037;DHT22;10677;50.942;4.028;2022-07-21T04:11:24;19.90;99.90
21037;DHT22;10677;50.942;4.028;2022-07-21T04:13:49;19.90;99.90
21037;DHT22;10677;50.942;4.028;2022-07-21T04:16:15;19.90;99.90
21037;DHT22;10677;50.942;4.028;2022-07-21T04:18:40;19.90;99.90
21037;DHT22;10677;50.942;4.028;2022-07-21T04:21:06;19.90;99.90
21037;DHT22;10677;50.942;4.028;2022-07-21T04:23:32;19.90;99.90
21037;DHT22;10677;50.942;4.028;2022-07-21T04:25:58;19.90;99.90
21037;DHT22;10677;50.942;4.028;2022-07-21T04:28:23;19.80;99.90
21037;DHT22;10677;50.942;4.028;2022-07-21T04:30:49;19.70;99.90
21037;DHT22;10677;50.942;4.028;2022-07-21T04:33:15;19.80;99.90
21037;DHT22;10677;50.942;4.028;2022-07-21T04:35:40;19.80;99.90
21037;DHT22;10677;50.942;4.028;2022-07-21T04:38:08;19.70;99.90
21037;DHT22;10677;50.942;4.028;2022-07-21T04:40:34;19.80;99.90
21037;DHT22;10677;50.942;4.028;2022-07-21T04:42:59;19.80;99.90
21037;DHT22;10677;50.942;4.028;2022-07-21T04:45:25;19.70;99.90
21037;DHT22;10677;50.942;4.028;2022-07-21T04:47:53;19.70;99.90
21037;DHT22;10677;50.942;4.028;2022-07-21T04:50:21;19.60;99.90
21037;DHT22;10677;50.942;4.028;2022-07-21T04:52:48;19.60;99.90
21037;DHT22;10677;50.942;4.028;2022-07-21T04:55:14;19.50;99.90
21037;DHT22;10677;50.942;4.028;2022-07-21T04:57:42;19.40;99.90
21037;DHT22;10677;50.942;4.028;2022-07-21T05:00:11;19.40;99.90
21037;DHT22;10677;50.942;4.028;2022-07-21T05:02:37;19.40;99.90
21037;DHT22;10677;50.942;4.028;2022-07-21T05:05:03;19.40;99.90
21037;DHT22;10677;50.942;4.028;2022-07-21T05:07:29;19.40;99.90
21037;DHT22;10677;50.942;4.028;2022-07-21T05:09:55;19.40;99.90
21037;DHT22;10677;50.942;4.028;2022-07-21T05:12:22;19.40;99.90
21037;DHT22;10677;50.942;4.028;2022-07-21T05:14:48;19.40;99.90
21037;DHT22;10677;50.942;4.028;2022-07-21T05:17:13;19.50;99.90
21037;DHT22;10677;50.942;4.028;2022-07-21T05:19:39;19.40;99.90
21037;DHT22;10677;50.942;4.028;2022-07-21T05:22:04;19.50;99.90
21037;DHT22;10677;50.942;4.028;2022-07-21T05:24:30;19.50;99.90
21037;DHT22;10677;50.942;4.028;2022-07-21T05:26:55;19.40;99.90
21037;DHT22;10677;50.942;4.028;2022-07-21T05:29:21;19.40;99.90
21037;DHT22;10677;50.942;4.028;2022-07-21T05:31:47;19.40;99.90
21037;DHT22;10677;50.942;4.028;2022-07-21T05:34:12;19.30;99.90
21037;DHT22;10677;50.942;4.028;2022-07-21T05:36:38;19.30;99.90
21037;DHT22;10677;50.942;4.028;2022-07-21T05:39:03;19.20;99.90
21037;DHT22;10677;50.942;4.028;2022-07-21T05:41:29;19.20;99.90
21037;DHT22;10677;50.942;4.028;2022-07-21T05:43:55;19.20;99.90
21037;DHT22;10677;50.942;4.028;2022-07-21T05:46:20;19.30;99.90
21037;DHT22;10677;50.942;4.028;2022-07-21T05:48:46;19.30;99.90
21037;DHT22;10677;50.942;4.028;2022-07-21T05:51:11;19.30;99.90
21037;DHT22;10677;50.942;4.028;2022-07-21T05:53:37;19.30;99.90
21037;DHT22;10677;50.942;4.028;2022-07-21T05:56:03;19.40;99.90
21037;DHT22;10677;50.942;4.028;2022-07-21T05:58:28;19.40;99.90
21037;DHT22;10677;50.942;4.028;2022-07-21T06:00:54;19.30;99.90
21037;DHT22;10677;50.942;4.028;2022-07-21T06:03:42;19.20;99.90
21037;DHT22;10677;50.942;4.028;2022-07-21T06:06:09;19.30;99.90
21037;DHT22;10677;50.942;4.028;2022-07-21T06:08:36;19.30;99.90
21037;DHT22;10677;50.942;4.028;2022-07-21T06:11:02;19.30;99.90
21037;DHT22;10677;50.942;4.028;2022-07-21T06:13:27;19.30;99.90
21037;DHT22;10677;50.942;4.028;2022-07-21T06:15:53;19.20;99.90
21037;DHT22;10677;50.942;4.028;2022-07-21T06:18:19;19.20;99.90
21037;DHT22;10677;50.942;4.028;2022-07-21T06:20:45;19.20;99.90
21037;DHT22;10677;50.942;4.028;2022-07-21T06:23:10;19.20;99.90
21037;DHT22;10677;50.942;4.028;2022-07-21T06:25:36;19.20;99.90
21037;DHT22;10677;50.942;4.028;2022-07-21T06:28:02;19.10;99.90
21037;DHT22;10677;50.942;4.028;2022-07-21T06:30:27;19.20;99.90
21037;DHT22;10677;50.942;4.028;2022-07-21T06:32:53;19.10;99.90
21037;DHT22;10677;50.942;4.028;2022-07-21T06:35:19;19.10;99.90
21037;DHT22;10677;50.942;4.028;2022-07-21T06:37:45;19.20;99.90
21037;DHT22;10677;50.942;4.028;2022-07-21T06:40:12;19.20;99.90
21037;DHT22;10677;50.942;4.028;2022-07-21T06:42:38;19.30;99.90
21037;DHT22;10677;50.942;4.028;2022-07-21T06:45:04;19.40;99.90
21037;DHT22;10677;50.942;4.028;2022-07-21T06:47:30;19.40;99.90
21037;DHT22;10677;50.942;4.028;2022-07-21T06:49:55;19.40;99.90
21037;DHT22;10677;50.942;4.028;2022-07-21T06:52:21;19.40;99.90
21037;DHT22;10677;50.942;4.028;2022-07-21T06:54:46;19.40;99.90
21037;DHT22;10677;50.942;4.028;2022-07-21T06:57:12;19.50;99.90
21037;DHT22;10677;50.942;4.028;2022-07-21T06:59:39;19.40;99.90
21037;DHT22;10677;50.942;4.028;2022-07-21T07:02:05;19.40;99.90
21037;DHT22;10677;50.942;4.028;2022-07-21T07:04:30;19.50;99.90
21037;DHT22;10677;50.942;4.028;2022-07-21T07:06:56;19.50;99.90
21037;DHT22;10677;50.942;4.028;2022-07-21T07:09:21;19.60;99.90
21037;DHT22;10677;50.942;4.028;2022-07-21T07:11:48;19.60;99.90
21037;DHT22;10677;50.942;4.028;2022-07-21T07:14:16;19.70;99.90
21037;DHT22;10677;50.942;4.028;2022-07-21T07:16:41;19.70;99.90
21037;DHT22;10677;50.942;4.028;2022-07-21T07:19:07;19.70;99.90
21037;DHT22;10677;50.942;4.028;2022-07-21T07:21:33;19.50;99.90
21037;DHT22;10677;50.942;4.028;2022-07-21T07:23:58;19.50;99.90
21037;DHT22;10677;50.942;4.028;2022-07-21T07:26:24;19.30;99.90
21037;DHT22;10677;50.942;4.028;2022-07-21T07:28:49;19.40;99.90
21037;DHT22;10677;50.942;4.028;2022-07-21T07:31:15;19.40;99.90
21037;DHT22;10677;50.942;4.028;2022-07-21T07:33:40;19.30;99.90
21037;DHT22;10677;50.942;4.028;2022-07-21T07:36:07;19.30;99.90
21037;DHT22;10677;50.942;4.028;2022-07-21T07:38:36;19.50;99.90
21037;DHT22;10677;50.942;4.028;2022-07-21T07:41:01;19.50;99.90
21037;DHT22;10677;50.942;4.028;2022-07-21T07:43:27;19.30;99.90
21037;DHT22;10677;50.942;4.028;2022-07-21T07:45:53;19.30;99.90
21037;DHT22;10677;50.942;4.028;2022-07-21T07:48:18;19.20;99.90
21037;DHT22;10677;50.942;4.028;2022-07-21T07:50:44;19.20;99.90
21037;DHT22;10677;50.942;4.028;2022-07-21T07:53:09;19.30;99.90
21037;DHT22;10677;50.942;4.028;2022-07-21T07:55:35;19.30;99.90
21037;DHT22;10677;50.942;4.028;2022-07-21T07:58:02;19.40;99.90
21037;DHT22;10677;50.942;4.028;2022-07-21T08:00:27;19.40;99.90
21037;DHT22;10677;50.942;4.028;2022-07-21T08:02:53;19.40;99.90
21037;DHT22;10677;50.942;4.028;2022-07-21T08:05:18;19.40;99.90
21037;DHT22;10677;50.942;4.028;2022-07-21T08:07:44;19.20;99.90
21037;DHT22;10677;50.942;4.028;2022-07-21T08:10:12;19.20;99.90
21037;DHT22;10677;50.942;4.028;2022-07-21T08:12:38;19.00;99.90
21037;DHT22;10677;50.942;4.028;2022-07-21T08:15:04;19.00;99.90
21037;DHT22;10677;50.942;4.028;2022-07-21T08:17:31;18.90;99.90
21037;DHT22;10677;50.942;4.028;2022-07-21T08:19:57;18.90;99.90
21037;DHT22;10677;50.942;4.028;2022-07-21T08:22:22;18.90;99.90
21037;DHT22;10677;50.942;4.028;2022-07-21T08:24:48;18.80;99.90
21037;DHT22;10677;50.942;4.028;2022-07-21T08:27:13;18.80;99.90
21037;DHT22;10677;50.942;4.028;2022-07-21T08:29:39;18.80;99.90
21037;DHT22;10677;50.942;4.028;2022-07-21T08:32:05;18.70;99.90
21037;DHT22;10677;50.942;4.028;2022-07-21T08:34:31;18.50;99.90
21037;DHT22;10677;50.942;4.028;2022-07-21T08:36:57;18.40;99.90
21037;DHT22;10677;50.942;4.028;2022-07-21T08:39:23;18.30;99.90
21037;DHT22;10677;50.942;4.028;2022-07-21T08:41:50;18.30;99.90
21037;DHT22;10677;50.942;4.028;2022-07-21T08:44:16;18.40;99.90
21037;DHT22;10677;50.942;4.028;2022-07-21T08:46:42;18.40;99.90
21037;DHT22;10677;50.942;4.028;2022-07-21T08:49:11;18.40;99.90
21037;DHT22;10677;50.942;4.028;2022-07-21T08:51:37;18.50;99.90
21037;DHT22;10677;50.942;4.028;2022-07-21T08:54:03;18.50;99.90
21037;DHT22;10677;50.942;4.028;2022-07-21T08:56:29;18.50;99.90
21037;DHT22;10677;50.942;4.028;2022-07-21T08:58:54;18.50;99.90
21037;DHT22;10677;50.942;4.028;2022-07-21T09:01:20;18.50;99.90
21037;DHT22;10677;50.942;4.028;2022-07-21T09:03:52;18.50;99.90
21037;DHT22;10677;50.942;4.028;2022-07-21T09:06:19;18.50;99.90
21037;DHT22;10677;50.942;4.028;2022-07-21T09:08:50;18.40;99.90
21037;DHT22;10677;50.942;4.028;2022-07-21T09:11:24;18.20;99.90
21037;DHT22;10677;50.942;4.028;2022-07-21T09:14:06;18.20;99.90
21037;DHT22;10677;50.942;4.028;2022-07-21T09:16:38;18.20;99.90
21037;DHT22;10677;50.942;4.028;2022-07-21T09:19:04;18.20;99.90
21037;DHT22;10677;50.942;4.028;2022-07-21T09:21:32;18.20;99.90
21037;DHT22;10677;50.942;4.028;2022-07-21T09:24:20;18.30;99.90
21037;DHT22;10677;50.942;4.028;2022-07-21T09:29:34;18.30;99.90
21037;DHT22;10677;50.942;4.028;2022-07-21T09:34:42;18.30;99.90
21037;DHT22;10677;50.942;4.028;2022-07-21T09:37:08;18.40;99.90
21037;DHT22;10677;50.942;4.028;2022-07-21T09:40:04;18.40;99.90
21037;DHT22;10677;50.942;4.028;2022-07-21T09:42:35;18.40;99.90
21037;DHT22;10677;50.942;4.028;2022-07-21T09:45:11;18.40;99.90
21037;DHT22;10677;50.942;4.028;2022-07-21T09:47:37;18.30;99.90
21037;DHT22;10677;50.942;4.028;2022-07-21T09:50:05;18.40;99.90
21037;DHT22;10677;50.942;4.028;2022-07-21T09:52:36;18.40;99.90
21037;DHT22;10677;50.942;4.028;2022-07-21T09:55:07;18.40;99.90
21037;DHT22;10677;50.942;4.028;2022-07-21T09:57:34;18.50;99.90
21037;DHT22;10677;50.942;4.028;2022-07-21T10:00:00;18.50;99.90
21037;DHT22;10677;50.942;4.028;2022-07-21T10:02:30;18.50;99.90
21037;DHT22;10677;50.942;4.028;2022-07-21T10:05:12;18.60;99.90
21037;DHT22;10677;50.942;4.028;2022-07-21T10:07:48;18.70;99.90
21037;DHT22;10677;50.942;4.028;2022-07-21T10:10:15;19.00;99.90
21037;DHT22;10677;50.942;4.028;2022-07-21T10:12:41;19.30;99.90
21037;DHT22;10677;50.942;4.028;2022-07-21T10:15:07;19.50;99.90
21037;DHT22;10677;50.942;4.028;2022-07-21T10:17:33;19.60;99.90
21037;DHT22;10677;50.942;4.028;2022-07-21T10:20:16;19.80;99.90
21037;DHT22;10677;50.942;4.028;2022-07-21T10:23:10;19.90;99.90
21037;DHT22;10677;50.942;4.028;2022-07-21T10:25:38;19.90;99.90
21037;DHT22;10677;50.942;4.028;2022-07-21T10:30:43;20.20;99.90
21037;DHT22;10677;50.942;4.028;2022-07-21T10:33:10;20.50;99.90
21037;DHT22;10677;50.942;4.028;2022-07-21T10:35:40;20.60;99.90
21037;DHT22;10677;50.942;4.028;2022-07-21T10:38:06;20.70;99.90
21037;DHT22;10677;50.942;4.028;2022-07-21T10:45:34;20.30;99.90
21037;DHT22;10677;50.942;4.028;2022-07-21T10:48:01;20.10;99.90
21037;DHT22;10677;50.942;4.028;2022-07-21T10:50:39;19.90;99.90
21037;DHT22;10677;50.942;4.028;2022-07-21T10:53:12;19.80;99.90
21037;DHT22;10677;50.942;4.028;2022-07-21T10:55:49;19.70;99.90
21037;DHT22;10677;50.942;4.028;2022-07-21T10:58:24;19.60;99.90
21037;DHT22;10677;50.942;4.028;2022-07-21T11:03:33;19.70;99.90
21037;DHT22;10677;50.942;4.028;2022-07-21T11:06:19;19.70;99.90
21037;DHT22;10677;50.942;4.028;2022-07-21T11:09:07;19.60;99.90
21037;DHT22;10677;50.942;4.028;2022-07-21T11:11:36;19.60;99.90
21037;DHT22;10677;50.942;4.028;2022-07-21T11:14:17;19.50;99.90
21037;DHT22;10677;50.942;4.028;2022-07-21T11:19:51;19.40;99.90
21037;DHT22;10677;50.942;4.028;2022-07-21T11:22:27;19.40;99.90
21037;DHT22;10677;50.942;4.028;2022-07-21T11:25:05;19.40;99.90
21037;DHT22;10677;50.942;4.028;2022-07-21T11:27:35;19.50;99.90
21037;DHT22;10677;50.942;4.028;2022-07-21T11:30:06;19.60;99.90
21037;DHT22;10677;50.942;4.028;2022-07-21T11:32:32;19.80;99.90
21037;DHT22;10677;50.942;4.028;2022-07-21T11:35:03;19.90;99.90
21037;DHT22;10677;50.942;4.028;2022-07-21T11:37:42;19.90;99.90
21037;DHT22;10677;50.942;4.028;2022-07-21T11:40:15;20.10;99.90
21037;DHT22;10677;50.942;4.028;2022-07-21T11:42:43;20.10;99.90
21037;DHT22;10677;50.942;4.028;2022-07-21T11:45:10;20.10;99.90
21037;DHT22;10677;50.942;4.028;2022-07-21T11:47:36;20.20;99.90
21037;DHT22;10677;50.942;4.028;2022-07-21T11:50:05;20.20;99.90
21037;DHT22;10677;50.942;4.028;2022-07-21T11:52:33;20.10;99.90
21037;DHT22;10677;50.942;4.028;2022-07-21T11:55:02;20.10;99.90
21037;DHT22;10677;50.942;4.028;2022-07-21T11:57:28;20.00;99.90
21037;DHT22;10677;50.942;4.028;2022-07-21T11:59:56;20.00;99.90
21037;DHT22;10677;50.942;4.028;2022-07-21T12:02:27;19.70;99.90
21037;DHT22;10677;50.942;4.028;2022-07-21T12:04:59;19.60;99.90
21037;DHT22;10677;50.942;4.028;2022-07-21T12:10:07;19.50;99.90
21037;DHT22;10677;50.942;4.028;2022-07-21T12:12:48;19.60;99.90
21037;DHT22;10677;50.942;4.028;2022-07-21T12:15:24;19.60;99.90
21037;DHT22;10677;50.942;4.028;2022-07-21T12:17:55;19.60;99.90
21037;DHT22;10677;50.942;4.028;2022-07-21T12:20:36;19.60;99.90
21037;DHT22;10677;50.942;4.028;2022-07-21T12:23:25;19.50;99.90
21037;DHT22;10677;50.942;4.028;2022-07-21T12:25:51;19.60;99.90
21037;DHT22;10677;50.942;4.028;2022-07-21T12:28:17;19.60;99.90
21037;DHT22;10677;50.942;4.028;2022-07-21T12:30:48;19.50;99.90
21037;DHT22;10677;50.942;4.028;2022-07-21T12:33:27;19.80;99.90
21037;DHT22;10677;50.942;4.028;2022-07-21T12:36:05;19.90;99.90
21037;DHT22;10677;50.942;4.028;2022-07-21T12:38:40;20.00;99.90
21037;DHT22;10677;50.942;4.028;2022-07-21T12:41:07;19.90;99.90
21037;DHT22;10677;50.942;4.028;2022-07-21T12:43:33;19.90;99.90
21037;DHT22;10677;50.942;4.028;2022-07-21T12:46:09;19.80;99.90
21037;DHT22;10677;50.942;4.028;2022-07-21T12:48:36;20.00;99.90
21037;DHT22;10677;50.942;4.028;2022-07-21T12:53:47;20.20;99.90
21037;DHT22;10677;50.942;4.028;2022-07-21T12:56:16;20.00;99.90
21037;DHT22;10677;50.942;4.028;2022-07-21T12:58:43;19.90;99.90
21037;DHT22;10677;50.942;4.028;2022-07-21T13:01:09;19.80;99.90
21037;DHT22;10677;50.942;4.028;2022-07-21T13:03:36;19.70;99.90
21037;DHT22;10677;50.942;4.028;2022-07-21T13:06:04;19.60;99.90
21037;DHT22;10677;50.942;4.028;2022-07-21T13:08:30;19.60;99.90
21037;DHT22;10677;50.942;4.028;2022-07-21T13:10:56;19.60;99.90
21037;DHT22;10677;50.942;4.028;2022-07-21T13:13:22;19.70;99.90
21037;DHT22;10677;50.942;4.028;2022-07-21T13:15:47;19.80;99.90
21037;DHT22;10677;50.942;4.028;2022-07-21T13:18:13;19.80;99.90
21037;DHT22;10677;50.942;4.028;2022-07-21T13:20:39;19.80;99.90
21037;DHT22;10677;50.942;4.028;2022-07-21T13:23:05;19.80;99.90
21037;DHT22;10677;50.942;4.028;2022-07-21T13:25:31;19.90;99.90
21037;DHT22;10677;50.942;4.028;2022-07-21T13:27:57;19.90;99.90
21037;DHT22;10677;50.942;4.028;2022-07-21T13:30:22;19.80;99.90
21037;DHT22;10677;50.942;4.028;2022-07-21T13:32:48;19.80;99.90
21037;DHT22;10677;50.942;4.028;2022-07-21T13:35:14;19.80;99.90
21037;DHT22;10677;50.942;4.028;2022-07-21T13:37:40;19.80;99.90
21037;DHT22;10677;50.942;4.028;2022-07-21T13:40:06;19.80;99.90
21037;DHT22;10677;50.942;4.028;2022-07-21T13:42:32;19.70;99.90
21037;DHT22;10677;50.942;4.028;2022-07-21T13:44:57;19.80;99.90
21037;DHT22;10677;50.942;4.028;2022-07-21T13:47:23;19.60;99.90
21037;DHT22;10677;50.942;4.028;2022-07-21T13:49:49;19.80;99.90
21037;DHT22;10677;50.942;4.028;2022-07-21T13:52:15;19.70;99.90
21037;DHT22;10677;50.942;4.028;2022-07-21T13:54:40;19.80;99.90
21037;DHT22;10677;50.942;4.028;2022-07-21T13:57:06;20.10;99.90
21037;DHT22;10677;50.942;4.028;2022-07-21T13:59:32;20.30;99.90
21037;DHT22;10677;50.942;4.028;2022-07-21T14:01:58;20.30;99.90
21037;DHT22;10677;50.942;4.028;2022-07-21T14:04:23;20.30;99.90
21037;DHT22;10677;50.942;4.028;2022-07-21T14:06:49;20.30;99.90
21037;DHT22;10677;50.942;4.028;2022-07-21T14:09:16;20.40;99.90
21037;DHT22;10677;50.942;4.028;2022-07-21T14:11:42;20.60;99.90
21037;DHT22;10677;50.942;4.028;2022-07-21T14:14:08;20.80;99.90
21037;DHT22;10677;50.942;4.028;2022-07-21T14:16:35;21.40;99.90
21037;DHT22;10677;50.942;4.028;2022-07-21T14:19:00;21.70;99.90
21037;DHT22;10677;50.942;4.028;2022-07-21T14:21:26;21.50;99.90
21037;DHT22;10677;50.942;4.028;2022-07-21T14:23:52;21.10;99.90
21037;DHT22;10677;50.942;4.028;2022-07-21T14:26:38;20.80;99.90
21037;DHT22;10677;50.942;4.028;2022-07-21T14:29:07;20.70;99.90
21037;DHT22;10677;50.942;4.028;2022-07-21T14:31:33;20.70;99.90
21037;DHT22;10677;50.942;4.028;2022-07-21T14:33:59;21.10;99.90
21037;DHT22;10677;50.942;4.028;2022-07-21T14:36:25;21.10;99.90
21037;DHT22;10677;50.942;4.028;2022-07-21T14:38:51;21.00;99.90
21037;DHT22;10677;50.942;4.028;2022-07-21T14:41:17;21.00;99.90
21037;DHT22;10677;50.942;4.028;2022-07-21T14:43:42;20.90;99.90
21037;DHT22;10677;50.942;4.028;2022-07-21T14:46:08;20.80;99.90
21037;DHT22;10677;50.942;4.028;2022-07-21T14:48:33;20.50;99.90
21037;DHT22;10677;50.942;4.028;2022-07-21T14:50:59;20.30;99.90
21037;DHT22;10677;50.942;4.028;2022-07-21T14:53:25;20.10;99.90
21037;DHT22;10677;50.942;4.028;2022-07-21T14:55:50;20.30;99.90
21037;DHT22;10677;50.942;4.028;2022-07-21T14:58:16;20.80;99.90
21037;DHT22;10677;50.942;4.028;2022-07-21T15:00:41;21.00;99.90
21037;DHT22;10677;50.942;4.028;2022-07-21T15:03:07;20.90;99.90
21037;DHT22;10677;50.942;4.028;2022-07-21T15:05:33;20.40;99.90
21037;DHT22;10677;50.942;4.028;2022-07-21T15:07:59;20.60;99.90
21037;DHT22;10677;50.942;4.028;2022-07-21T15:10:24;21.10;99.90
21037;DHT22;10677;50.942;4.028;2022-07-21T15:12:50;21.90;99.90
21037;DHT22;10677;50.942;4.028;2022-07-21T15:15:16;22.10;99.90
21037;DHT22;10677;50.942;4.028;2022-07-21T15:17:41;22.00;99.90
21037;DHT22;10677;50.942;4.028;2022-07-21T15:20:08;21.70;99.90
21037;DHT22;10677;50.942;4.028;2022-07-21T15:22:34;21.10;99.90
21037;DHT22;10677;50.942;4.028;2022-07-21T15:25:01;20.90;99.90
21037;DHT22;10677;50.942;4.028;2022-07-21T15:27:27;20.80;99.90
21037;DHT22;10677;50.942;4.028;2022-07-21T15:29:52;20.60;99.90
21037;DHT22;10677;50.942;4.028;2022-07-21T15:32:18;20.60;99.90
21037;DHT22;10677;50.942;4.028;2022-07-21T15:34:44;20.50;99.90
21037;DHT22;10677;50.942;4.028;2022-07-21T15:37:09;20.30;99.90
21037;DHT22;10677;50.942;4.028;2022-07-21T15:39:37;20.30;99.90
21037;DHT22;10677;50.942;4.028;2022-07-21T15:42:06;20.40;99.90
21037;DHT22;10677;50.942;4.028;2022-07-21T15:44:32;20.40;99.90
21037;DHT22;10677;50.942;4.028;2022-07-21T15:46:58;20.80;99.90
21037;DHT22;10677;50.942;4.028;2022-07-21T15:49:24;20.80;99.90
21037;DHT22;10677;50.942;4.028;2022-07-21T15:51:49;20.90;99.90
21037;DHT22;10677;50.942;4.028;2022-07-21T15:54:15;20.80;99.90